Terminal Aerodrome Forecast
Issued by NWS

Home | Current Version | Previous Version | Text Only | Print | Product List | Glossary On
Versions: 1 2 3 4 5 6 7 8 9 10 11 12 13 14
000
FTUS42 KGSP 282320
TAFAND
TAF
KAND 282320Z 2900/2924 32010KT P6SM SKC
     FM290400 36004KT P6SM SKC
     FM291400 13003KT P6SM SKC
     FM291700 18005KT P6SM FEW250=

USA.gov is the U.S. government's official web portal to all federal, state and local government web resources and services.